Time,TemperatureF,DewpointF,PressureIn,WindDirection,WindDirectionDegrees,WindSpeedMPH,WindSpeedGustMPH,Humidity,HourlyPrecipIn,Conditions,Clouds,dailyrainin,SoftwareType,DateUTC
2013-09-25 00:04:00,69.6,33.2,29.88,North,0,0.0,0.0,26,0.00,,---,0.00,VWS V14.01,2013-09-25 07:04:00,
2013-09-25 00:09:00,69.6,33.2,29.88,North,0,0.0,0.0,26,0.00,,---,0.00,VWS V14.01,2013-09-25 07:09:00,
2013-09-25 00:14:00,69.6,33.2,29.88,North,0,0.0,0.0,26,0.00,,---,0.00,VWS V14.01,2013-09-25 07:14:00,
2013-09-25 00:19:00,69.8,32.4,29.88,North,0,0.0,0.0,25,0.00,,---,0.00,VWS V14.01,2013-09-25 07:19:00,
2013-09-25 00:25:00,69.6,33.2,29.88,North,0,0.0,0.0,26,0.00,,---,0.00,VWS V14.01,2013-09-25 07:25:00,
2013-09-25 00:30:00,69.4,33.1,29.88,North,0,0.0,0.0,26,0.00,,---,0.00,VWS V14.01,2013-09-25 07:30:00,
2013-09-25 00:35:00,69.3,32.9,29.88,North,0,0.0,0.0,26,0.00,,---,0.00,VWS V14.01,2013-09-25 07:35:00,
2013-09-25 00:40:00,69.6,33.2,29.88,North,0,0.0,0.0,26,0.00,,---,0.00,VWS V14.01,2013-09-25 07:40:00,
2013-09-25 00:45:00,69.4,33.1,29.88,North,0,0.0,0.0,26,0.00,,---,0.00,VWS V14.01,2013-09-25 07:45:00,
2013-09-25 00:50:00,69.3,32.9,29.88,North,0,0.0,0.0,26,0.00,,---,0.00,VWS V14.01,2013-09-25 07:50:00,
2013-09-25 02:32:00,67.1,32.0,29.85,East,90,4.3,4.3,27,0.00,,---,0.00,VWS V14.01,2013-09-25 09:32:00,
2013-09-25 02:37:00,66.9,32.8,29.85,East,90,4.3,4.3,28,0.00,,---,0.00,VWS V14.01,2013-09-25 09:37:00,
2013-09-25 02:43:00,66.7,32.6,29.85,ENE,68,3.4,3.4,28,0.00,,---,0.00,VWS V14.01,2013-09-25 09:43:00,
2013-09-25 02:48:00,66.4,32.3,29.85,ENE,68,3.4,3.4,28,0.00,,---,0.00,VWS V14.01,2013-09-25 09:48:00,
2013-09-25 02:53:00,66.2,32.2,29.85,ESE,112,2.7,2.7,28,0.00,,---,0.00,VWS V14.01,2013-09-25 09:53:00,
2013-09-25 02:58:00,66.2,32.2,29.85,NW,315,3.6,3.6,28,0.00,,---,0.00,VWS V14.01,2013-09-25 09:58:00,
2013-09-25 03:03:00,66.0,32.9,29.85,North,0,2.7,2.7,29,0.00,,---,0.00,VWS V14.01,2013-09-25 10:03:00,
2013-09-25 03:08:00,65.7,32.6,29.85,North,0,3.4,3.4,29,0.00,,---,0.00,VWS V14.01,2013-09-25 10:08:00,
2013-09-25 03:13:00,65.7,31.7,29.85,WNW,292,0.0,0.0,28,0.00,,---,0.00,VWS V14.01,2013-09-25 10:13:00,
2013-09-25 03:18:00,65.5,32.4,29.85,West,270,2.5,2.5,29,0.00,,---,0.00,VWS V14.01,2013-09-25 10:18:00,
2013-09-25 03:23:00,66.2,32.2,29.85,WSW,248,0.0,2.5,28,0.00,,---,0.00,VWS V14.01,2013-09-25 10:23:00,
2013-09-25 03:28:00,66.2,32.2,29.85,WNW,292,0.0,0.0,28,0.00,,---,0.00,VWS V14.01,2013-09-25 10:28:00,
2013-09-25 03:34:00,66.0,32.0,29.85,WNW,292,0.0,0.0,28,0.00,,---,0.00,VWS V14.01,2013-09-25 10:34:00,
2013-09-25 03:39:00,65.8,32.7,29.85,WNW,292,0.0,0.0,29,0.00,,---,0.00,VWS V14.01,2013-09-25 10:39:00,
2013-09-25 03:44:00,65.5,33.3,29.85,WNW,292,0.0,0.0,30,0.00,,---,0.00,VWS V14.01,2013-09-25 10:44:00,
2013-09-25 03:49:00,65.5,33.3,29.85,NW,315,0.9,0.9,30,0.00,,---,0.00,VWS V14.01,2013-09-25 10:49:00,
2013-09-25 03:54:00,65.5,33.3,29.85,NW,315,0.0,0.0,30,0.00,,---,0.00,VWS V14.01,2013-09-25 10:54:00,
2013-09-25 03:59:00,65.5,33.3,29.85,NW,315,0.0,0.0,30,0.00,,---,0.00,VWS V14.01,2013-09-25 10:59:00,
2013-09-25 04:04:00,65.1,32.9,29.85,NW,315,0.0,0.0,30,0.00,,---,0.00,VWS V14.01,2013-09-25 11:04:00,
2013-09-25 04:09:00,64.8,32.6,29.85,NW,315,0.0,0.0,30,0.00,,---,0.00,VWS V14.01,2013-09-25 11:09:00,
2013-09-25 04:14:00,64.6,32.5,29.85,NW,315,0.0,0.0,30,0.00,,---,0.00,VWS V14.01,2013-09-25 11:14:00,
2013-09-25 04:19:00,64.4,32.3,29.85,NW,315,0.0,0.0,30,0.00,,---,0.00,VWS V14.01,2013-09-25 11:19:00,
2013-09-25 04:24:00,64.4,32.3,29.85,NW,315,0.0,0.0,30,0.00,,---,0.00,VWS V14.01,2013-09-25 11:24:00,
2013-09-25 04:29:00,64.8,32.6,29.85,NNW,338,0.0,0.0,30,0.00,,---,0.00,VWS V14.01,2013-09-25 11:29:00,
2013-09-25 04:35:00,64.8,32.6,29.85,NNW,338,0.0,0.0,30,0.00,,---,0.00,VWS V14.01,2013-09-25 11:35:00,
2013-09-25 04:40:00,64.4,32.3,29.85,North,0,1.3,1.3,30,0.00,,---,0.00,VWS V14.01,2013-09-25 11:40:00,
2013-09-25 04:45:00,64.4,32.3,29.85,North,0,0.0,0.0,30,0.00,,---,0.00,VWS V14.01,2013-09-25 11:45:00,
2013-09-25 04:50:00,64.2,32.2,29.85,North,0,0.0,0.0,30,0.00,,---,0.00,VWS V14.01,2013-09-25 11:50:00,
2013-09-25 04:55:00,64.2,32.2,29.85,North,0,0.0,0.0,30,0.00,,---,0.00,VWS V14.01,2013-09-25 11:55:00,
2013-09-25 05:00:00,64.0,32.8,29.85,North,0,0.0,0.0,31,0.00,,---,0.00,VWS V14.01,2013-09-25 12:00:00,
2013-09-25 05:05:00,63.7,32.5,29.85,NNW,338,1.1,1.1,31,0.00,,---,0.00,VWS V14.01,2013-09-25 12:05:00,
2013-09-25 05:10:00,63.5,32.3,29.85,North,0,0.9,0.9,31,0.00,,---,0.00,VWS V14.01,2013-09-25 12:10:00,
2013-09-25 05:15:00,63.5,32.3,29.85,NNW,338,0.9,0.9,31,0.00,,---,0.00,VWS V14.01,2013-09-25 12:15:00,
2013-09-25 05:21:00,63.3,32.2,29.85,NNW,338,0.0,0.0,31,0.00,,---,0.00,VWS V14.01,2013-09-25 12:21:00,
2013-09-25 05:26:00,63.1,32.0,29.85,NW,315,1.3,1.3,31,0.00,,---,0.00,VWS V14.01,2013-09-25 12:26:00,
2013-09-25 05:27:00,62.8,31.7,29.85,NW,315,1.3,1.3,31,0.00,,---,0.00,VWS V14.01,2013-09-25 12:27:00,
2013-09-25 05:32:00,63.0,31.9,29.85,NNW,338,2.0,2.0,31,0.00,,---,0.00,VWS V14.01,2013-09-25 12:32:00,
2013-09-25 05:37:00,63.0,31.9,29.85,NNW,338,1.3,1.6,31,0.00,,---,0.00,VWS V14.01,2013-09-25 12:37:00,
2013-09-25 05:42:00,63.3,32.2,29.85,NE,45,4.0,4.0,31,0.00,,---,0.00,VWS V14.01,2013-09-25 12:42:00,
2013-09-25 05:47:00,63.3,32.2,29.85,NNE,22,2.0,2.0,31,0.00,,---,0.00,VWS V14.01,2013-09-25 12:47:00,
2013-09-25 05:52:00,63.1,32.0,29.85,NNW,338,0.9,0.9,31,0.00,,---,0.00,VWS V14.01,2013-09-25 12:52:00,
2013-09-25 05:57:00,62.8,31.7,29.85,NNW,338,0.0,0.0,31,0.00,,---,0.00,VWS V14.01,2013-09-25 12:57:00,
2013-09-25 06:02:00,62.8,31.7,29.85,NNW,338,0.0,0.0,31,0.00,,---,0.00,VWS V14.01,2013-09-25 13:02:00,
2013-09-25 06:08:00,63.0,32.7,29.82,NNW,338,0.0,0.0,32,0.00,,---,0.00,VWS V14.01,2013-09-25 13:08:00,
2013-09-25 06:13:00,63.1,32.8,29.82,NNW,338,2.0,2.0,32,0.00,,---,0.00,VWS V14.01,2013-09-25 13:13:00,
2013-09-25 06:18:00,63.1,32.0,29.82,NW,315,1.1,1.1,31,0.00,,---,0.00,VWS V14.01,2013-09-25 13:18:00,
2013-09-25 06:23:00,63.3,32.2,29.82,NW,315,2.5,2.5,31,0.00,,---,0.00,VWS V14.01,2013-09-25 13:23:00,
2013-09-25 06:28:00,63.3,32.2,29.82,NW,315,2.5,2.5,31,0.00,,---,0.00,VWS V14.01,2013-09-25 13:28:00,
2013-09-25 06:33:00,63.7,32.5,29.82,NW,315,2.5,2.5,31,0.00,,---,0.00,VWS V14.01,2013-09-25 13:33:00,
2013-09-25 06:38:00,64.2,33.0,29.82,West,270,1.3,2.5,31,0.00,,---,0.00,VWS V14.01,2013-09-25 13:38:00,
2013-09-25 06:43:00,65.5,33.3,29.82,West,270,1.3,1.3,30,0.00,,---,0.00,VWS V14.01,2013-09-25 13:43:00,
2013-09-25 06:48:00,66.6,35.0,29.82,SE,135,1.3,1.3,31,0.00,,---,0.00,VWS V14.01,2013-09-25 13:48:00,
2013-09-25 06:53:00,66.6,35.0,29.85,East,90,2.7,2.7,31,0.00,,---,0.00,VWS V14.01,2013-09-25 13:53:00,
2013-09-25 06:58:00,66.6,35.0,29.85,ESE,112,1.6,1.6,31,0.00,,---,0.00,VWS V14.01,2013-09-25 13:58:00,
2013-09-25 07:04:00,66.4,34.9,29.85,ENE,68,2.7,2.7,31,0.00,,---,0.00,VWS V14.01,2013-09-25 14:04:00,
2013-09-25 07:09:00,65.7,35.0,29.85,ENE,68,2.7,2.7,32,0.00,,---,0.00,VWS V14.01,2013-09-25 14:09:00,
2013-09-25 07:14:00,65.8,35.2,29.85,NNW,338,1.3,1.3,32,0.00,,---,0.00,VWS V14.01,2013-09-25 14:14:00,
2013-09-25 07:19:00,66.2,35.5,29.85,NNW,338,2.2,2.2,32,0.00,,---,0.00,VWS V14.01,2013-09-25 14:19:00,
2013-09-25 07:24:00,66.6,35.8,29.85,NW,315,1.3,2.5,32,0.00,,---,0.00,VWS V14.01,2013-09-25 14:24:00,
2013-09-25 07:29:00,67.1,36.3,29.85,NW,315,1.1,1.1,32,0.00,,---,0.00,VWS V14.01,2013-09-25 14:29:00,
2013-09-25 07:34:00,67.6,36.8,29.85,East,90,1.1,1.1,32,0.00,,---,0.00,VWS V14.01,2013-09-25 14:34:00,
2013-09-25 07:39:00,68.5,36.7,29.85,WNW,292,0.0,0.0,31,0.00,,---,0.00,VWS V14.01,2013-09-25 14:39:00,
2013-09-25 07:44:00,69.6,37.7,29.85,NNW,338,0.0,0.0,31,0.00,,---,0.00,VWS V14.01,2013-09-25 14:44:00,
2013-09-25 07:49:00,73.2,40.8,29.85,North,0,1.6,1.6,31,0.00,,---,0.00,VWS V14.01,2013-09-25 14:49:00,
2013-09-25 07:54:00,75.9,41.4,29.85,NNE,22,0.0,0.0,29,0.00,,---,0.00,VWS V14.01,2013-09-25 14:54:00,
2013-09-25 07:59:00,75.9,39.6,29.85,NNW,338,0.0,0.0,27,0.00,,---,0.00,VWS V14.01,2013-09-25 14:59:00,
2013-09-25 08:04:00,76.5,41.0,29.85,SW,225,0.9,0.9,28,0.00,,---,0.00,VWS V14.01,2013-09-25 15:04:00,
2013-09-25 08:09:00,76.3,39.9,29.85,WNW,292,1.3,1.3,27,0.00,,---,0.00,VWS V14.01,2013-09-25 15:09:00,
2013-09-25 08:14:00,75.6,39.3,29.85,North,0,0.0,0.0,27,0.00,,---,0.00,VWS V14.01,2013-09-25 15:14:00,
2013-09-25 08:20:00,75.6,39.3,29.85,SW,225,0.0,0.0,27,0.00,,---,0.00,VWS V14.01,2013-09-25 15:20:00,
2013-09-25 08:25:00,75.9,38.6,29.85,South,180,1.6,2.2,26,0.00,,---,0.00,VWS V14.01,2013-09-25 15:25:00,
2013-09-25 08:30:00,76.1,38.8,29.85,SSW,202,2.0,2.5,26,0.00,,---,0.00,VWS V14.01,2013-09-25 15:30:00,
2013-09-25 08:35:00,76.6,39.2,29.85,SE,135,2.9,2.9,26,0.00,,---,0.00,VWS V14.01,2013-09-25 15:35:00,
2013-09-25 08:40:00,77.2,38.7,29.85,South,180,1.3,1.3,25,0.00,,---,0.00,VWS V14.01,2013-09-25 15:40:00,
2013-09-25 08:45:00,77.7,39.1,29.85,WSW,248,0.9,1.1,25,0.00,,---,0.00,VWS V14.01,2013-09-25 15:45:00,
2013-09-25 08:50:00,78.1,39.4,29.85,SSW,202,1.6,1.6,25,0.00,,---,0.00,VWS V14.01,2013-09-25 15:50:00,
2013-09-25 08:55:00,78.6,38.8,29.85,South,180,2.0,2.0,24,0.00,,---,0.00,VWS V14.01,2013-09-25 15:55:00,
2013-09-25 09:00:00,79.3,39.5,29.85,West,270,3.1,3.1,24,0.00,,---,0.00,VWS V14.01,2013-09-25 16:00:00,
2013-09-25 09:05:00,80.2,39.1,29.85,South,180,2.5,3.8,23,0.00,,---,0.00,VWS V14.01,2013-09-25 16:05:00,
2013-09-25 09:11:00,80.8,38.4,29.85,South,180,3.1,3.1,22,0.00,,---,0.00,VWS V14.01,2013-09-25 16:11:00,
2013-09-25 09:16:00,81.7,39.2,29.85,SSW,202,1.6,2.0,22,0.00,,---,0.00,VWS V14.01,2013-09-25 16:16:00,
2013-09-25 09:21:00,82.2,39.6,29.85,South,180,2.2,2.9,22,0.00,,---,0.00,VWS V14.01,2013-09-25 16:21:00,
2013-09-25 09:26:00,83.1,39.2,29.85,South,180,4.0,5.6,21,0.00,,---,0.00,VWS V14.01,2013-09-25 16:26:00,
2013-09-25 09:31:00,83.8,38.5,29.85,East,90,2.7,6.5,20,0.00,,---,0.00,VWS V14.01,2013-09-25 16:31:00,
2013-09-25 09:36:00,84.4,37.7,29.85,ESE,112,2.7,2.7,19,0.00,,---,0.00,VWS V14.01,2013-09-25 16:36:00,
2013-09-25 09:41:00,85.1,38.2,29.85,South,180,2.7,2.7,19,0.00,,---,0.00,VWS V14.01,2013-09-25 16:41:00,
2013-09-25 09:46:00,85.6,38.7,29.85,SE,135,5.4,5.4,19,0.00,,---,0.00,VWS V14.01,2013-09-25 16:46:00,
2013-09-25 09:51:00,86.0,39.0,29.82,SW,225,2.5,2.5,19,0.00,,---,0.00,VWS V14.01,2013-09-25 16:51:00,
2013-09-25 09:56:00,86.4,39.3,29.82,SSW,202,3.8,6.3,19,0.00,,---,0.00,VWS V14.01,2013-09-25 16:56:00,
2013-09-25 10:02:00,86.7,38.2,29.82,South,180,6.5,6.5,18,0.00,,---,0.00,VWS V14.01,2013-09-25 17:02:00,
2013-09-25 10:07:00,87.1,38.5,29.82,SE,135,4.3,4.3,18,0.00,,---,0.00,VWS V14.01,2013-09-25 17:07:00,
2013-09-25 10:12:00,87.4,38.8,29.82,SE,135,4.3,4.3,18,0.00,,---,0.00,VWS V14.01,2013-09-25 17:12:00,
2013-09-25 10:17:00,87.8,39.1,29.82,SE,135,9.8,9.8,18,0.00,,---,0.00,VWS V14.01,2013-09-25 17:17:00,
2013-09-25 10:22:00,88.2,39.4,29.82,SW,225,3.8,3.8,18,0.00,,---,0.00,VWS V14.01,2013-09-25 17:22:00,
2013-09-25 10:27:00,88.2,39.4,29.82,South,180,3.1,4.3,18,0.00,,---,0.00,VWS V14.01,2013-09-25 17:27:00,
2013-09-25 10:32:00,88.3,39.5,29.82,SW,225,5.4,5.4,18,0.00,,---,0.00,VWS V14.01,2013-09-25 17:32:00,
2013-09-25 10:37:00,88.2,39.4,29.82,SW,225,3.8,5.4,18,0.00,,---,0.00,VWS V14.01,2013-09-25 17:37:00,
2013-09-25 10:42:00,88.3,39.5,29.82,West,270,7.4,7.4,18,0.00,,---,0.00,VWS V14.01,2013-09-25 17:42:00,
2013-09-25 10:47:00,88.3,39.5,29.82,West,270,7.4,7.4,18,0.00,,---,0.00,VWS V14.01,2013-09-25 17:47:00,
2013-09-25 10:52:00,88.5,39.7,29.82,West,270,7.4,7.4,18,0.00,,---,0.00,VWS V14.01,2013-09-25 17:52:00,
2013-09-25 10:57:00,88.7,39.8,29.82,SSW,202,2.7,2.7,18,0.00,,---,0.00,VWS V14.01,2013-09-25 17:57:00,
2013-09-25 11:02:00,88.7,39.8,29.82,SSW,202,2.7,2.7,18,0.00,,---,0.00,VWS V14.01,2013-09-25 18:02:00,
2013-09-25 11:07:00,88.9,39.9,29.82,SSW,202,2.7,2.7,18,0.00,,---,0.00,VWS V14.01,2013-09-25 18:07:00,
2013-09-25 11:12:00,88.9,39.9,29.82,WNW,292,6.0,6.0,18,0.00,,---,0.00,VWS V14.01,2013-09-25 18:12:00,
2013-09-25 11:17:00,89.1,40.1,29.82,WSW,248,5.6,5.6,18,0.00,,---,0.00,VWS V14.01,2013-09-25 18:17:00,
2013-09-25 11:23:00,89.2,40.2,29.79,WSW,248,5.6,5.6,18,0.00,,---,0.00,VWS V14.01,2013-09-25 18:23:00,
2013-09-25 11:28:00,89.6,39.1,29.79,SSW,202,3.4,3.4,17,0.00,,---,0.00,VWS V14.01,2013-09-25 18:28:00,
2013-09-25 11:33:00,89.8,39.2,29.79,WSW,248,4.5,4.5,17,0.00,,---,0.00,VWS V14.01,2013-09-25 18:33:00,
2013-09-25 11:38:00,90.0,39.3,29.79,WSW,248,3.1,3.1,17,0.00,,---,0.00,VWS V14.01,2013-09-25 18:38:00,
2013-09-25 11:43:00,90.0,39.3,29.79,WSW,248,3.1,3.1,17,0.00,,---,0.00,VWS V14.01,2013-09-25 18:43:00,
2013-09-25 11:48:00,90.5,39.8,29.79,WSW,248,3.1,3.1,17,0.00,,---,0.00,VWS V14.01,2013-09-25 18:48:00,
2013-09-25 11:53:00,90.5,39.8,29.79,WSW,248,3.1,3.1,17,0.00,,---,0.00,VWS V14.01,2013-09-25 18:53:00,
2013-09-25 11:58:00,90.3,39.6,29.79,WSW,248,3.1,3.1,17,0.00,,---,0.00,VWS V14.01,2013-09-25 18:58:00,
2013-09-25 12:03:00,90.7,39.9,29.79,WSW,248,3.1,3.1,17,0.00,,---,0.00,VWS V14.01,2013-09-25 19:03:00,
2013-09-25 12:08:00,90.7,39.9,29.79,WSW,248,3.1,3.1,17,0.00,,---,0.00,VWS V14.01,2013-09-25 19:08:00,
2013-09-25 12:13:00,91.0,40.2,29.79,WSW,248,3.1,3.1,17,0.00,,---,0.00,VWS V14.01,2013-09-25 19:13:00,
2013-09-25 12:19:00,91.2,40.4,29.79,WSW,248,3.1,3.1,17,0.00,,---,0.00,VWS V14.01,2013-09-25 19:19:00,
2013-09-25 12:24:00,91.6,40.7,29.79,WSW,248,3.1,3.1,17,0.00,,---,0.00,VWS V14.01,2013-09-25 19:24:00,
2013-09-25 12:29:00,91.9,40.9,29.79,WSW,248,3.1,3.1,17,0.00,,---,0.00,VWS V14.01,2013-09-25 19:29:00,
2013-09-25 12:34:00,92.3,41.2,29.79,WSW,248,3.1,3.1,17,0.00,,---,0.00,VWS V14.01,2013-09-25 19:34:00,
2013-09-25 12:39:00,92.1,41.1,29.76,WSW,248,3.1,3.1,17,0.00,,---,0.00,VWS V14.01,2013-09-25 19:39:00,
2013-09-25 12:44:00,92.1,36.1,29.76,WSW,248,3.1,3.1,14,0.00,,---,0.00,VWS V14.01,2013-09-25 19:44:00,
2013-09-25 12:49:00,92.5,41.4,29.76,WSW,248,3.1,3.1,17,0.00,,---,0.00,VWS V14.01,2013-09-25 19:49:00,
2013-09-25 12:54:00,92.5,41.4,29.76,WSW,248,3.1,3.1,17,0.00,,---,0.00,VWS V14.01,2013-09-25 19:54:00,
2013-09-25 12:59:00,92.8,41.7,29.76,WSW,248,3.1,3.1,17,0.00,,---,0.00,VWS V14.01,2013-09-25 19:59:00,
2013-09-25 13:04:00,92.8,41.7,29.76,WSW,248,3.1,3.1,17,0.00,,---,0.00,VWS V14.01,2013-09-25 20:04:00,
2013-09-25 13:09:00,93.0,41.8,29.74,WSW,248,3.1,3.1,17,0.00,,---,0.00,VWS V14.01,2013-09-25 20:09:00,
2013-09-25 13:14:00,93.0,41.8,29.74,WSW,248,3.1,3.1,17,0.00,,---,0.00,VWS V14.01,2013-09-25 20:14:00,
2013-09-25 13:19:00,93.0,41.8,29.74,WSW,248,3.1,3.1,17,0.00,,---,0.00,VWS V14.01,2013-09-25 20:19:00,
2013-09-25 13:24:00,92.8,36.7,29.74,WSW,248,3.1,3.1,14,0.00,,---,0.00,VWS V14.01,2013-09-25 20:24:00,
2013-09-25 13:29:00,93.0,41.8,29.74,WSW,248,3.1,3.1,17,0.00,,---,0.00,VWS V14.01,2013-09-25 20:29:00,
2013-09-25 13:34:00,93.2,37.0,29.74,WSW,248,3.1,3.1,14,0.00,,---,0.00,VWS V14.01,2013-09-25 20:34:00,
2013-09-25 13:39:00,93.4,40.5,29.74,WSW,248,3.1,3.1,16,0.00,,---,0.00,VWS V14.01,2013-09-25 20:39:00,
2013-09-25 13:44:00,93.6,40.7,29.74,WSW,248,3.1,3.1,16,0.00,,---,0.00,VWS V14.01,2013-09-25 20:44:00,
2013-09-25 13:50:00,93.9,37.5,29.74,WSW,248,3.1,3.1,14,0.00,,---,0.00,VWS V14.01,2013-09-25 20:50:00,
2013-09-25 13:55:00,93.7,37.4,29.74,WSW,248,3.1,3.1,14,0.00,,---,0.00,VWS V14.01,2013-09-25 20:55:00,
2013-09-25 14:00:00,93.9,37.5,29.74,WSW,248,3.1,3.1,14,0.00,,---,0.00,VWS V14.01,2013-09-25 21:00:00,
2013-09-25 14:05:00,94.1,37.7,29.74,WSW,248,3.1,3.1,14,0.00,,---,0.00,VWS V14.01,2013-09-25 21:05:00,
2013-09-25 14:10:00,94.3,37.8,29.74,WSW,248,3.1,3.1,14,0.00,,---,0.00,VWS V14.01,2013-09-25 21:10:00,
2013-09-25 14:15:00,94.1,37.7,29.74,WSW,248,3.1,3.1,14,0.00,,---,0.00,VWS V14.01,2013-09-25 21:15:00,
2013-09-25 14:20:00,93.9,37.5,29.74,WSW,248,3.1,3.1,14,0.00,,---,0.00,VWS V14.01,2013-09-25 21:20:00,
2013-09-25 14:25:00,93.7,37.4,29.74,WSW,248,3.1,3.1,14,0.00,,---,0.00,VWS V14.01,2013-09-25 21:25:00,
2013-09-25 14:30:00,93.7,37.4,29.74,WSW,248,3.1,3.1,14,0.00,,---,0.00,VWS V14.01,2013-09-25 21:30:00,
2013-09-25 14:35:00,93.9,37.5,29.74,WSW,248,3.1,3.1,14,0.00,,---,0.00,VWS V14.01,2013-09-25 21:35:00,
2013-09-25 14:40:00,94.1,37.7,29.74,WSW,248,3.1,3.1,14,0.00,,---,0.00,VWS V14.01,2013-09-25 21:40:00,
2013-09-25 14:45:00,94.3,37.8,29.74,WSW,248,3.1,3.1,14,0.00,,---,0.00,VWS V14.01,2013-09-25 21:45:00,
2013-09-25 14:50:00,94.3,37.8,29.74,WSW,248,3.1,3.1,14,0.00,,---,0.00,VWS V14.01,2013-09-25 21:50:00,
2013-09-25 14:55:00,94.3,37.8,29.74,WSW,248,3.1,3.1,14,0.00,,---,0.00,VWS V14.01,2013-09-25 21:55:00,
2013-09-25 15:00:00,94.1,37.7,29.74,WSW,248,3.1,3.1,14,0.00,,---,0.00,VWS V14.01,2013-09-25 22:00:00,
2013-09-25 15:05:00,94.3,37.8,29.74,WSW,248,3.1,3.1,14,0.00,,---,0.00,VWS V14.01,2013-09-25 22:05:00,
2013-09-25 15:10:00,94.3,37.8,29.74,WSW,248,3.1,3.1,14,0.00,,---,0.00,VWS V14.01,2013-09-25 22:10:00,
2013-09-25 15:16:00,94.5,38.0,29.74,WSW,248,3.1,3.1,14,0.00,,---,0.00,VWS V14.01,2013-09-25 22:16:00,
2013-09-25 15:21:00,94.6,38.1,29.74,WSW,248,3.1,3.1,14,0.00,,---,0.00,VWS V14.01,2013-09-25 22:21:00,
2013-09-25 15:26:00,94.8,38.2,29.71,WSW,248,3.1,3.1,14,0.00,,---,0.00,VWS V14.01,2013-09-25 22:26:00,
2013-09-25 15:31:00,94.5,38.0,29.71,WSW,248,3.1,3.1,14,0.00,,---,0.00,VWS V14.01,2013-09-25 22:31:00,
2013-09-25 15:36:00,94.5,38.0,29.71,WSW,248,3.1,3.1,14,0.00,,---,0.00,VWS V14.01,2013-09-25 22:36:00,
2013-09-25 15:41:00,94.6,38.1,29.71,WSW,248,3.1,3.1,14,0.00,,---,0.00,VWS V14.01,2013-09-25 22:41:00,
2013-09-25 15:46:00,94.8,38.2,29.71,WSW,248,3.1,3.1,14,0.00,,---,0.00,VWS V14.01,2013-09-25 22:46:00,
2013-09-25 15:51:00,94.6,38.1,29.71,WSW,248,3.1,3.1,14,0.00,,---,0.00,VWS V14.01,2013-09-25 22:51:00,
2013-09-25 15:56:00,94.5,38.0,29.71,WSW,248,3.1,3.1,14,0.00,,---,0.00,VWS V14.01,2013-09-25 22:56:00,
2013-09-25 16:02:00,94.3,37.8,29.71,WSW,248,3.1,3.1,14,0.00,,---,0.00,VWS V14.01,2013-09-25 23:02:00,
2013-09-25 16:07:00,94.1,37.7,29.71,WSW,248,3.1,3.1,14,0.00,,---,0.00,VWS V14.01,2013-09-25 23:07:00,
2013-09-25 16:12:00,94.1,37.7,29.71,WSW,248,3.1,3.1,14,0.00,,---,0.00,VWS V14.01,2013-09-25 23:12:00,
2013-09-25 16:17:00,93.9,37.5,29.71,WSW,248,3.1,3.1,14,0.00,,---,0.00,VWS V14.01,2013-09-25 23:17:00,
2013-09-25 16:22:00,93.6,37.3,29.71,WSW,248,3.1,3.1,14,0.00,,---,0.00,VWS V14.01,2013-09-25 23:22:00,
2013-09-25 16:27:00,93.4,37.1,29.71,WSW,248,3.1,3.1,14,0.00,,---,0.00,VWS V14.01,2013-09-25 23:27:00,
2013-09-25 16:32:00,93.4,37.1,29.71,WSW,248,3.1,3.1,14,0.00,,---,0.00,VWS V14.01,2013-09-25 23:32:00,
2013-09-25 16:37:00,92.8,36.7,29.71,WSW,248,3.1,3.1,14,0.00,,---,0.00,VWS V14.01,2013-09-25 23:37:00,
2013-09-25 16:42:00,92.7,36.5,29.71,WSW,248,3.1,3.1,14,0.00,,---,0.00,VWS V14.01,2013-09-25 23:42:00,
2013-09-25 16:47:00,92.3,36.3,29.71,WSW,248,3.1,3.1,14,0.00,,---,0.00,VWS V14.01,2013-09-25 23:47:00,
2013-09-25 16:52:00,92.1,36.1,29.71,WSW,248,3.1,3.1,14,0.00,,---,0.00,VWS V14.01,2013-09-25 23:52:00,
2013-09-25 16:58:00,91.6,35.7,29.71,WSW,248,3.1,3.1,14,0.00,,---,0.00,VWS V14.01,2013-09-25 23:58:00,
2013-09-25 17:03:00,91.2,37.2,29.71,WSW,248,3.1,3.1,15,0.00,,---,0.00,VWS V14.01,2013-09-26 00:03:00,
2013-09-25 17:08:00,90.7,36.7,29.71,WSW,248,3.1,3.1,15,0.00,,---,0.00,VWS V14.01,2013-09-26 00:08:00,
2013-09-25 17:13:00,90.3,36.5,29.71,WSW,248,3.1,3.1,15,0.00,,---,0.00,VWS V14.01,2013-09-26 00:13:00,
2013-09-25 17:18:00,90.0,36.2,29.71,WSW,248,3.1,3.1,15,0.00,,---,0.00,VWS V14.01,2013-09-26 00:18:00,
2013-09-25 17:23:00,89.6,35.9,29.71,WSW,248,3.1,3.1,15,0.00,,---,0.00,VWS V14.01,2013-09-26 00:23:00,
2013-09-25 17:28:00,89.4,35.7,29.71,WSW,248,3.1,3.1,15,0.00,,---,0.00,VWS V14.01,2013-09-26 00:28:00,
2013-09-25 17:33:00,89.1,35.5,29.71,WSW,248,3.1,3.1,15,0.00,,---,0.00,VWS V14.01,2013-09-26 00:33:00,
2013-09-25 17:38:00,88.7,35.2,29.71,WSW,248,3.6,3.6,15,0.00,,---,0.00,VWS V14.01,2013-09-26 00:38:00,
2013-09-25 17:43:00,88.0,34.6,29.71,WNW,292,3.4,3.4,15,0.00,,---,0.00,VWS V14.01,2013-09-26 00:43:00,
2013-09-25 17:48:00,87.3,35.6,29.71,SW,225,3.6,3.6,16,0.00,,---,0.00,VWS V14.01,2013-09-26 00:48:00,
2013-09-25 17:53:00,86.7,35.2,29.71,SW,225,2.5,2.5,16,0.00,,---,0.00,VWS V14.01,2013-09-26 00:53:00,
2013-09-25 17:59:00,86.2,34.8,29.71,SW,225,2.5,2.5,16,0.00,,---,0.00,VWS V14.01,2013-09-26 00:59:00,
2013-09-25 18:04:00,85.6,34.3,29.71,SW,225,2.5,2.5,16,0.00,,---,0.00,VWS V14.01,2013-09-26 01:04:00,
2013-09-25 18:09:00,85.1,33.9,29.71,SW,225,2.5,2.5,16,0.00,,---,0.00,VWS V14.01,2013-09-26 01:09:00,
2013-09-25 18:14:00,84.6,33.5,29.71,SW,225,2.5,2.5,16,0.00,,---,0.00,VWS V14.01,2013-09-26 01:14:00,
2013-09-25 18:19:00,84.2,33.2,29.71,SW,225,2.5,2.5,16,0.00,,---,0.00,VWS V14.01,2013-09-26 01:19:00,
2013-09-25 18:24:00,83.8,32.9,29.71,SW,225,3.1,3.1,16,0.00,,---,0.00,VWS V14.01,2013-09-26 01:24:00,
2013-09-25 18:29:00,83.5,32.6,29.71,SW,225,3.1,3.1,16,0.00,,---,0.00,VWS V14.01,2013-09-26 01:29:00,
2013-09-25 18:34:00,83.1,32.3,29.71,SW,225,3.1,3.1,16,0.00,,---,0.00,VWS V14.01,2013-09-26 01:34:00,
2013-09-25 18:39:00,82.8,32.0,29.71,SW,225,3.1,3.1,16,0.00,,---,0.00,VWS V14.01,2013-09-26 01:39:00,
2013-09-25 18:44:00,82.4,31.8,29.71,SW,225,3.1,3.1,16,0.00,,---,0.00,VWS V14.01,2013-09-26 01:44:00,
2013-09-25 18:49:00,82.0,33.0,29.71,SW,225,3.1,3.1,17,0.00,,---,0.00,VWS V14.01,2013-09-26 01:49:00,
2013-09-25 18:55:00,81.7,32.7,29.74,SW,225,3.4,3.4,17,0.00,,---,0.00,VWS V14.01,2013-09-26 01:55:00,
2013-09-25 19:00:00,81.5,32.5,29.74,SSW,202,3.6,3.6,17,0.00,,---,0.00,VWS V14.01,2013-09-26 02:00:00,
2013-09-25 19:05:00,81.5,32.5,29.74,WNW,292,3.6,3.6,17,0.00,,---,0.00,VWS V14.01,2013-09-26 02:05:00,
2013-09-25 19:10:00,81.3,32.4,29.74,WNW,292,3.6,3.6,17,0.00,,---,0.00,VWS V14.01,2013-09-26 02:10:00,
2013-09-25 19:15:00,81.0,32.1,29.74,WNW,292,3.6,3.6,17,0.00,,---,0.00,VWS V14.01,2013-09-26 02:15:00,
2013-09-25 19:20:00,80.6,31.8,29.74,WNW,292,3.6,3.6,17,0.00,,---,0.00,VWS V14.01,2013-09-26 02:20:00,
2013-09-25 19:25:00,80.4,31.7,29.74,WNW,292,3.6,3.6,17,0.00,,---,0.00,VWS V14.01,2013-09-26 02:25:00,
2013-09-25 19:30:00,80.1,31.4,29.74,WNW,292,3.6,3.6,17,0.00,,---,0.00,VWS V14.01,2013-09-26 02:30:00,
2013-09-25 19:35:00,79.5,30.9,29.74,WNW,292,3.6,3.6,17,0.00,,---,0.00,VWS V14.01,2013-09-26 02:35:00,
2013-09-25 19:40:00,79.2,30.6,29.74,WNW,292,3.6,3.6,17,0.00,,---,0.00,VWS V14.01,2013-09-26 02:40:00,
2013-09-25 19:45:00,78.8,30.4,29.74,WNW,292,3.6,3.6,17,0.00,,---,0.00,VWS V14.01,2013-09-26 02:45:00,
2013-09-25 19:50:00,78.3,31.3,29.74,WNW,292,3.6,3.6,18,0.00,,---,0.00,VWS V14.01,2013-09-26 02:50:00,
2013-09-25 19:56:00,77.9,31.0,29.74,WNW,292,3.6,3.6,18,0.00,,---,0.00,VWS V14.01,2013-09-26 02:56:00,
2013-09-25 20:01:00,77.7,30.9,29.74,WNW,292,3.6,3.6,18,0.00,,---,0.00,VWS V14.01,2013-09-26 03:01:00,
2013-09-25 20:06:00,77.5,30.7,29.74,WNW,292,3.6,3.6,18,0.00,,---,0.00,VWS V14.01,2013-09-26 03:06:00,
2013-09-25 20:11:00,77.5,30.7,29.74,SW,225,1.3,1.3,18,0.00,,---,0.00,VWS V14.01,2013-09-26 03:11:00,
2013-09-25 20:16:00,77.4,30.6,29.74,SW,225,1.3,1.3,18,0.00,,---,0.00,VWS V14.01,2013-09-26 03:16:00,
2013-09-25 20:21:00,77.4,30.6,29.74,SW,225,1.3,1.3,18,0.00,,---,0.00,VWS V14.01,2013-09-26 03:21:00,
2013-09-25 20:26:00,77.0,30.3,29.76,SSW,202,1.6,1.6,18,0.00,,---,0.00,VWS V14.01,2013-09-26 03:26:00,
2013-09-25 20:31:00,76.5,29.9,29.76,SSW,202,1.6,1.6,18,0.00,,---,0.00,VWS V14.01,2013-09-26 03:31:00,
2013-09-25 20:36:00,75.9,29.4,29.76,SSW,202,1.6,1.6,18,0.00,,---,0.00,VWS V14.01,2013-09-26 03:36:00,
2013-09-25 20:41:00,75.4,29.0,29.76,SSW,202,1.6,1.6,18,0.00,,---,0.00,VWS V14.01,2013-09-26 03:41:00,
2013-09-25 20:46:00,74.8,28.5,29.76,SSW,202,1.6,1.6,18,0.00,,---,0.00,VWS V14.01,2013-09-26 03:46:00,
2013-09-25 20:56:00,74.5,28.2,29.76,SSW,202,1.6,1.6,18,0.00,,---,0.00,VWS V14.01,2013-09-26 03:56:00,
2013-09-25 21:01:00,74.3,28.1,29.76,SSW,202,1.6,1.6,18,0.00,,---,0.00,VWS V14.01,2013-09-26 04:01:00,
2013-09-25 21:02:00,74.1,27.9,29.76,SW,225,1.1,1.6,18,0.00,,---,0.00,VWS V14.01,2013-09-26 04:02:00,
2013-09-25 21:03:00,74.1,27.9,29.76,SW,225,1.1,1.1,18,0.00,,---,0.00,VWS V14.01,2013-09-26 04:03:00,
2013-09-25 21:08:00,73.9,27.8,29.76,SW,225,1.1,1.1,18,0.00,,---,0.00,VWS V14.01,2013-09-26 04:08:00,
2013-09-25 21:13:00,73.9,27.8,29.76,SSW,202,1.1,1.1,18,0.00,,---,0.00,VWS V14.01,2013-09-26 04:13:00,
2013-09-25 21:19:00,73.4,27.4,29.76,SW,225,1.3,1.3,18,0.00,,---,0.00,VWS V14.01,2013-09-26 04:19:00,
2013-09-25 21:24:00,73.0,28.4,29.76,South,180,2.0,2.0,19,0.00,,---,0.00,VWS V14.01,2013-09-26 04:24:00,
2013-09-25 21:29:00,72.9,28.2,29.76,South,180,2.0,2.0,19,0.00,,---,0.00,VWS V14.01,2013-09-26 04:29:00,
2013-09-25 21:34:00,72.9,28.2,29.76,South,180,2.0,2.0,19,0.00,,---,0.00,VWS V14.01,2013-09-26 04:34:00,
2013-09-25 21:39:00,73.0,28.4,29.76,South,180,2.0,2.0,19,0.00,,---,0.00,VWS V14.01,2013-09-26 04:39:00,
2013-09-25 21:44:00,73.0,28.4,29.76,South,180,2.0,2.0,19,0.00,,---,0.00,VWS V14.01,2013-09-26 04:44:00,
2013-09-25 21:50:00,73.0,28.4,29.76,South,180,2.0,2.0,19,0.00,,---,0.00,VWS V14.01,2013-09-26 04:50:00,
2013-09-25 21:55:00,73.0,28.4,29.76,South,180,2.0,2.0,19,0.00,,---,0.00,VWS V14.01,2013-09-26 04:55:00,
2013-09-25 22:00:00,73.0,28.4,29.76,South,180,2.7,3.1,19,0.00,,---,0.00,VWS V14.01,2013-09-26 05:00:00,
2013-09-25 22:05:00,73.4,27.4,29.76,SW,225,3.1,3.1,18,0.00,,---,0.00,VWS V14.01,2013-09-26 05:05:00,
2013-09-25 22:10:00,73.6,27.5,29.76,SW,225,2.7,2.7,18,0.00,,---,0.00,VWS V14.01,2013-09-26 05:10:00,
2013-09-25 22:15:00,73.8,27.6,29.76,SW,225,2.7,2.7,18,0.00,,---,0.00,VWS V14.01,2013-09-26 05:15:00,
2013-09-25 22:20:00,73.9,27.8,29.76,SW,225,2.7,2.7,18,0.00,,---,0.00,VWS V14.01,2013-09-26 05:20:00,
2013-09-25 22:25:00,74.1,27.9,29.76,SW,225,2.7,2.7,18,0.00,,---,0.00,VWS V14.01,2013-09-26 05:25:00,
2013-09-25 22:30:00,74.1,27.9,29.76,South,180,2.9,2.9,18,0.00,,---,0.00,VWS V14.01,2013-09-26 05:30:00,
2013-09-25 22:35:00,74.3,28.1,29.76,South,180,2.9,2.9,18,0.00,,---,0.00,VWS V14.01,2013-09-26 05:35:00,
2013-09-25 22:40:00,74.5,28.2,29.76,South,180,2.9,2.9,18,0.00,,---,0.00,VWS V14.01,2013-09-26 05:40:00,
2013-09-25 22:45:00,74.5,28.2,29.76,SW,225,4.9,4.9,18,0.00,,---,0.00,VWS V14.01,2013-09-26 05:45:00,
2013-09-25 22:50:00,74.3,28.1,29.76,SW,225,4.9,4.9,18,0.00,,---,0.00,VWS V14.01,2013-09-26 05:50:00,
2013-09-25 22:55:00,74.1,27.9,29.79,SW,225,4.9,4.9,18,0.00,,---,0.00,VWS V14.01,2013-09-26 05:55:00,
2013-09-25 23:00:00,73.8,27.6,29.79,SW,225,4.9,4.9,18,0.00,,---,0.00,VWS V14.01,2013-09-26 06:00:00,
2013-09-25 23:06:00,73.4,27.4,29.79,SW,225,4.9,4.9,18,0.00,,---,0.00,VWS V14.01,2013-09-26 06:06:00,
2013-09-25 23:11:00,72.9,28.2,29.79,SW,225,4.9,4.9,19,0.00,,---,0.00,VWS V14.01,2013-09-26 06:11:00,
2013-09-25 23:16:00,72.5,27.9,29.79,SSW,202,1.3,1.3,19,0.00,,---,0.00,VWS V14.01,2013-09-26 06:16:00,
2013-09-25 23:21:00,72.1,27.6,29.79,SSW,202,1.3,1.3,19,0.00,,---,0.00,VWS V14.01,2013-09-26 06:21:00,
2013-09-25 23:26:00,72.0,27.5,29.76,SSW,202,1.3,1.3,19,0.00,,---,0.00,VWS V14.01,2013-09-26 06:26:00,
2013-09-25 23:31:00,71.8,27.3,29.76,SSW,202,1.3,1.3,19,0.00,,---,0.00,VWS V14.01,2013-09-26 06:31:00,
2013-09-25 23:36:00,71.6,27.2,29.76,SSW,202,1.3,1.3,19,0.00,,---,0.00,VWS V14.01,2013-09-26 06:36:00,
2013-09-25 23:41:00,71.4,27.0,29.79,SSW,202,1.3,1.3,19,0.00,,---,0.00,VWS V14.01,2013-09-26 06:41:00,
2013-09-25 23:46:00,71.2,26.9,29.79,SSW,202,1.3,1.3,19,0.00,,---,0.00,VWS V14.01,2013-09-26 06:46:00,
2013-09-25 23:51:00,71.1,26.8,29.79,SSW,202,1.3,1.3,19,0.00,,---,0.00,VWS V14.01,2013-09-26 06:51:00,
2013-09-25 23:56:00,70.9,26.6,29.76,SSW,202,1.3,1.3,19,0.00,,---,0.00,VWS V14.01,2013-09-26 06:56:00,